Flight Track Log - Related Links

Times and Time Zones

All times are in EDT time to prevent confusion due to time zone crossing. See the N2002P flight status page for this flight to view local times or setup timezone preferences in your user account.

Time Position Orientation Groundspeed Altitude Reporting Facility
EDT Latitude Longitude Course Direction KTS MPH feet Rate Location/Type
Thu 05:37:23 PM 29.9603 -81.9625 195° South 174 200 6,600  Level Jacksonville Center
Thu 05:38:30 PM 29.9061 -81.9797 195° South 181 208 6,600 -47 Level Jacksonville Center
Thu 05:39:31 PM 29.8561 -81.9897 190° South 184 212 6,500 -104 Descending Jacksonville Center
Thu 05:40:25 PM 29.8103 -82.0069 198° South 191 220 6,400 -52 Descending Jacksonville Center
Thu 05:41:26 PM 29.7603 -82.0242 197° South 181 208 6,400  Level Jacksonville Center
Thu 05:42:00 PM 29.7635 -82.0191 195° South  Level Estimated
Thu 05:42:28 PM 29.7144 -82.0364 193° South 171 197 6,400  Level Jacksonville Center
Thu 05:43:28 PM 29.6667 -82.0511 195° South 180 207 6,400  Level Jacksonville Center
Thu 05:44:29 PM 29.6144 -82.0661 194° South 180 207 6,400  Level Jacksonville Center
Thu 05:45:30 PM 29.5667 -82.0831 197° South 177 204 6,400  Level Jacksonville Center
Thu 05:46:31 PM 29.5186 -82.1003 197° South 179 206 6,400  Level Jacksonville Center
Thu 05:47:31 PM 29.4708 -82.1100 190° South 177 204 6,400  Level Jacksonville Center
Thu 05:48:32 PM 29.4208 -82.1272 197° South 178 205 6,400  Level Jacksonville Center
Thu 05:49:33 PM 29.3728 -82.1442 197° South 177 204 6,400  Level Jacksonville Center
Thu 05:50:34 PM 29.3250 -82.1567 193° South 175 201 6,400  Level Jacksonville Center
Thu 05:51:41 PM 29.2728 -82.1783 200° South 174 200 6,400  Level Jacksonville Center
Thu 05:52:42 PM 29.2314 -82.2050 209° Southwest 172 198 6,400 49 Level Jacksonville Center
Thu 05:53:43 PM 29.1897 -82.2336 211° Southwest 172 198 6,500  Climbing Jacksonville Center
Thu 05:54:43 PM 29.1481 -82.2625 211° Southwest 174 200 6,400 -50 Descending Jacksonville Center
Thu 05:55:44 PM 29.1086 -82.2914 213° Southwest 175 201 6,400  Level Jacksonville Center
Thu 05:56:39 PM 29.0647 -82.3153 205° Southwest 175 201 6,400 52 Level Jacksonville Center
Thu 05:57:40 PM 29.0253 -82.3442 213° Southwest 176 203 6,500 43 Climbing Jacksonville Center
Thu 05:58:59 PM 28.9628 -82.3775 205° Southwest 178 205 6,500  Level Jacksonville Center
Thu 05:59:47 PM 28.9294 -82.3944 204° Southwest 179 206 6,500  Level Jacksonville Center
Thu 06:00:54 PM 28.8753 -82.4161 199° South 178 205 6,500  Level Jacksonville Center
Thu 06:01:55 PM 28.8294 -82.4400 205° Southwest 180 207 6,500  Level Jacksonville Center
Thu 06:04:00 PM 28.7472 -82.4433 187° South  Level FlightAware Approximate
Thu 06:11:00 PM 28.4392 -82.5023 190° South  Level FlightAware Approximate
Thu 06:12:00 PM 28.3953 -82.5111 190° South  Level FlightAware Approximate
Thu 06:13:00 PM 28.3513 -82.5198 190° South  Level FlightAware Approximate
Thu 06:14:00 PM 28.3074 -82.5286 190° South  Level FlightAware Approximate
Thu 06:15:00 PM 28.2634 -82.5374 190° South  Level FlightAware Approximate
Thu 06:16:00 PM 28.2195 -82.5461 190° South  Level FlightAware Approximate
Thu 06:17:00 PM 28.1753 -82.5535 187° South  Level FlightAware Approximate
Thu 06:18:00 PM 28.1311 -82.5599 187° South  Level FlightAware Approximate
Thu 06:19:00 PM 28.0868 -82.5662 187° South  Level FlightAware Approximate
Thu 06:20:00 PM 28.0425 -82.5725 187° South  Level FlightAware Approximate
Thu 06:21:00 PM 27.9982 -82.5788 187° South  Level FlightAware Approximate
Thu 06:22:00 PM 27.9540 -82.5853 188° South  Level FlightAware Approximate
Thu 06:23:00 PM 27.9097 -82.5921 188° South  Level FlightAware Approximate
Thu 06:24:00 PM 27.8655 -82.5989 188° South  Level FlightAware Approximate
Thu 06:25:00 PM 27.8213 -82.6057 188° South  Level FlightAware Approximate
Thu 06:26:00 PM 27.7771 -82.6125 188° South  Level FlightAware Approximate
Thu 06:27:00 PM 27.7651 -82.6270 188° South  Level Estimated
Thu 06:28:00 PM 27.7651 -82.6270 188° South  Level Estimated
Thu 06:29:00 PM 27.7651 -82.6270 188° South  Level Estimated
Thu 06:30:00 PM 27.7651 -82.6270 188° South  Level Estimated
Thu 06:31:00 PM 27.7651 -82.6270 188° South  Level Estimated
Thu 06:32:00 PM 27.7651 -82.6270 188° South  Level Estimated
Thu 06:33:00 PM 27.7651 -82.6270 188° South  Level Estimated
Thu 06:34:00 PM 27.7651 -82.6270 188° South  Level Estimated

Login

Don't have an account? Register now (free) for customized features, flight alerts, and more!